Time;durP1;ratioP1;P1;durP2;ratioP2;P2;SDS_P1;SDS_P2;PMS_P1;PMS_P2;Temp;Humidity;BMP_temperature;BMP_pressure;BME280_temperature;BME280_humidity;BME280_pressure;Samples;Min_cycle;Max_cycle;Signal;HPM_P1;HPM_P2
2023/04/17 00:00:37;;;;;;;45.03;28.42;;;;;;;7.21;98.82;102496.19;4898180;29;20052;-75
2023/04/17 00:03:02;;;;;;;45.50;28.40;;;;;;;7.18;98.49;102492.59;4900802;29;20044;-74
2023/04/17 00:05:30;;;;;;;47.05;28.83;;;;;;;7.15;98.09;102497.72;4882995;29;20052;-74
2023/04/17 00:07:56;;;;;;;48.35;28.88;;;;;;;7.10;98.69;102495.00;4908117;29;20049;-74
2023/04/17 00:10:23;;;;;;;46.28;28.73;;;;;;;7.06;98.41;102488.78;4864377;29;20104;-74
2023/04/17 00:12:48;;;;;;;50.55;28.33;;;;;;;7.05;98.89;102493.97;4879624;29;20162;-74
2023/04/17 00:15:14;;;;;;;44.90;26.98;;;;;;;7.04;99.19;102489.59;4866543;29;20123;-74
2023/04/17 00:17:39;;;;;;;48.75;29.23;;;;;;;7.05;98.73;102493.97;4885287;29;20044;-74
2023/04/17 00:20:09;;;;;;;47.78;30.23;;;;;;;7.06;99.11;102495.75;4864587;29;20127;-74
2023/04/17 00:22:36;;;;;;;44.88;28.83;;;;;;;7.08;99.24;102499.25;4889012;29;20044;-74
2023/04/17 00:25:01;;;;;;;47.03;29.30;;;;;;;7.07;99.15;102494.91;4878983;29;20044;-75
2023/04/17 00:27:27;;;;;;;45.03;27.60;;;;;;;7.09;99.24;102499.31;4882911;29;20051;-74
2023/04/17 00:29:53;;;;;;;47.20;28.77;;;;;;;7.11;99.05;102499.34;4896879;29;20032;-74
2023/04/17 00:32:19;;;;;;;44.55;29.13;;;;;;;7.10;99.12;102503.69;4894128;29;20040;-74
2023/04/17 00:34:44;;;;;;;44.58;28.40;;;;;;;7.11;99.53;102499.34;4879503;29;20484;-74
2023/04/17 00:37:09;;;;;;;52.97;29.80;;;;;;;7.11;99.31;102499.34;4879540;29;20040;-74
2023/04/17 00:39:35;;;;;;;44.08;29.02;;;;;;;7.09;98.85;102488.88;4866007;29;20045;-74
2023/04/17 00:42:01;;;;;;;48.75;29.42;;;;;;;7.10;98.29;102492.38;4884022;29;20059;-74
2023/04/17 00:44:26;;;;;;;42.53;28.50;;;;;;;7.09;98.60;102490.63;4899862;29;20100;-75
2023/04/17 00:46:53;;;;;;;44.22;29.05;;;;;;;7.10;98.13;102493.25;4867396;29;20060;-74
2023/04/17 00:49:19;;;;;;;45.63;30.60;;;;;;;7.08;98.52;102481.91;4884071;29;20485;-74
2023/04/17 00:51:44;;;;;;;48.65;29.58;;;;;;;7.09;98.13;102485.41;4884110;29;20048;-74
2023/04/17 00:54:11;;;;;;;45.10;29.42;;;;;;;7.08;97.89;102488.84;4900703;29;20044;-75
2023/04/17 00:56:37;;;;;;;44.65;28.90;;;;;;;7.06;98.37;102482.72;4883541;29;20116;-74
2023/04/17 00:59:04;;;;;;;46.08;29.23;;;;;;;7.07;97.99;102484.50;4865187;29;20048;-75
2023/04/17 01:01:30;;;;;;;47.60;29.50;;;;;;;7.05;98.80;102478.31;4910754;29;20402;-74
2023/04/17 01:03:57;;;;;;;45.80;29.63;;;;;;;7.06;98.27;102474.88;4865733;29;20047;-74
2023/04/17 01:06:22;;;;;;;41.25;29.05;;;;;;;7.06;98.10;102472.28;4884490;29;20040;-74
2023/04/17 01:08:48;;;;;;;40.28;27.77;;;;;;;7.03;97.21;102478.28;4866028;29;20044;-74
2023/04/17 01:11:13;;;;;;;42.05;28.85;;;;;;;7.05;97.75;102478.31;4880540;29;20045;-74
2023/04/17 01:13:46;;;;;;;41.97;28.23;;;;;;;7.04;97.36;102481.75;4865489;29;20473;-74
2023/04/17 01:16:12;;;;;;;45.08;28.58;;;;;;;7.05;97.73;102480.94;4883214;29;20524;-74
2023/04/17 01:18:37;;;;;;;37.83;26.85;;;;;;;7.04;97.77;102480.06;4865237;29;20052;-74
2023/04/17 01:21:03;;;;;;;42.47;28.23;;;;;;;7.03;96.68;102478.28;4910296;29;20172;-75
2023/04/17 01:23:28;;;;;;;42.95;27.42;;;;;;;7.03;97.13;102480.03;4880306;29;20124;-74
2023/04/17 01:25:54;;;;;;;39.05;27.20;;;;;;;7.03;97.01;102474.81;4896173;29;20036;-75
2023/04/17 01:28:19;;;;;;;40.47;27.38;;;;;;;7.01;97.16;102476.47;4865215;29;20151;-75
2023/04/17 01:30:45;;;;;;;36.22;26.85;;;;;;;7.00;96.69;102475.59;4877353;29;20040;-74
2023/04/17 01:33:10;;;;;;;43.42;28.17;;;;;;;7.02;97.07;102481.72;4882719;29;20055;-74
2023/04/17 01:35:36;;;;;;;43.55;27.42;;;;;;;7.01;96.81;102486.88;4881072;29;20044;-74
2023/04/17 01:38:02;;;;;;;41.30;27.35;;;;;;;7.00;96.63;102482.53;4896194;29;20093;-74
2023/04/17 01:40:27;;;;;;;40.67;26.27;;;;;;;7.00;96.48;102490.38;4874466;29;20115;-74
2023/04/17 01:42:53;;;;;;;37.97;26.17;;;;;;;7.00;96.54;102491.22;4898148;29;20028;-74
2023/04/17 01:45:18;;;;;;;39.45;26.60;;;;;;;6.98;96.51;102489.41;4898032;29;20540;-75
2023/04/17 01:47:44;;;;;;;39.42;26.52;;;;;;;6.99;96.07;102488.59;4899092;29;20066;-75
2023/04/17 01:50:11;;;;;;;43.10;27.58;;;;;;;6.98;96.79;102492.03;4897570;29;20051;-74
2023/04/17 01:52:38;;;;;;;40.55;28.17;;;;;;;6.98;96.68;102486.81;4883473;29;20230;-74
2023/04/17 01:55:04;;;;;;;41.50;29.42;;;;;;;6.97;96.90;102492.84;4878959;29;20039;-74
2023/04/17 01:57:32;;;;;;;45.45;29.20;;;;;;;6.98;97.35;102489.41;4880697;29;20178;-74
2023/04/17 01:59:57;;;;;;;46.75;28.60;;;;;;;6.98;96.99;102486.81;4907781;29;20039;-74
2023/04/17 02:02:22;;;;;;;43.95;28.98;;;;;;;6.97;97.40;102485.03;4866935;29;20040;-74
2023/04/17 02:04:48;;;;;;;45.72;30.02;;;;;;;6.98;97.29;102487.69;4898207;29;20405;-74
2023/04/17 02:07:13;;;;;;;52.47;31.02;;;;;;;6.97;97.69;102485.03;4880778;29;20377;-75
2023/04/17 02:09:40;;;;;;;47.58;29.85;;;;;;;6.96;98.01;102491.09;4892308;29;20036;-74
2023/04/17 02:12:05;;;;;;;46.08;29.58;;;;;;;6.95;97.87;102484.97;4867134;29;20040;-74
2023/04/17 02:14:31;;;;;;;47.65;29.77;;;;;;;6.94;98.09;102489.31;4874634;29;20123;-74
2023/04/17 02:16:57;;;;;;;42.17;28.23;;;;;;;6.94;97.81;102491.06;4893068;29;20187;-74
2023/04/17 02:19:26;;;;;;;44.72;29.33;;;;;;;6.93;97.76;102490.16;4865746;29;20048;-74
2023/04/17 02:21:52;;;;;;;45.55;29.38;;;;;;;6.93;97.94;102487.53;4894158;29;20097;-74
2023/04/17 02:24:17;;;;;;;47.55;29.73;;;;;;;6.94;97.58;102491.94;4877551;29;20123;-74
2023/04/17 02:26:42;;;;;;;40.47;28.52;;;;;;;6.93;97.94;102484.94;4864599;29;20044;-74
2023/04/17 02:29:08;;;;;;;44.97;29.08;;;;;;;6.97;97.23;102490.25;4882081;29;20054;-74
2023/04/17 02:31:33;;;;;;;41.70;27.77;;;;;;;6.94;97.42;102485.84;4865719;29;20481;-74
2023/04/17 02:33:59;;;;;;;42.30;27.98;;;;;;;6.92;97.24;102490.13;4881006;29;20064;-74
2023/04/17 02:36:26;;;;;;;41.25;27.67;;;;;;;6.92;96.71;102488.41;4882869;29;20055;-74
2023/04/17 02:38:51;;;;;;;38.90;27.05;;;;;;;6.92;97.23;102490.13;4899577;29;20048;-74
2023/04/17 02:41:17;;;;;;;40.47;26.38;;;;;;;6.91;96.71;102483.13;4893494;29;20032;-74
2023/04/17 02:43:42;;;;;;;41.58;27.63;;;;;;;6.91;96.21;102491.84;4895767;29;20350;-74
2023/04/17 02:46:07;;;;;;;42.13;28.67;;;;;;;6.90;97.00;102487.47;4860541;29;20151;-74
2023/04/17 02:48:33;;;;;;;41.22;27.40;;;;;;;6.91;97.40;102497.06;4898184;29;20043;-74
2023/04/17 02:50:58;;;;;;;47.25;29.27;;;;;;;6.92;97.64;102497.94;4891943;29;20043;-74
2023/04/17 02:53:24;;;;;;;43.15;28.52;;;;;;;6.92;97.80;102498.84;4878578;29;20040;-75
2023/04/17 02:55:49;;;;;;;47.38;30.27;;;;;;;6.92;97.06;102497.94;4863904;29;20432;-74
2023/04/17 02:58:15;;;;;;;47.70;29.15;;;;;;;6.93;97.42;102500.59;4866233;29;20028;-74
2023/04/17 03:00:40;;;;;;;44.15;27.83;;;;;;;6.92;97.49;102504.06;4900154;29;20055;-74
2023/04/17 03:03:06;;;;;;;46.75;29.98;;;;;;;6.90;97.51;102503.09;4876861;29;20048;-74
2023/04/17 03:05:32;;;;;;;45.17;29.02;;;;;;;6.88;97.37;102506.50;4879242;29;20049;-74
2023/04/17 03:07:58;;;;;;;48.00;28.98;;;;;;;6.85;97.71;102502.09;4876627;29;20044;-74
2023/04/17 03:10:24;;;;;;;44.60;28.83;;;;;;;6.84;97.81;102499.41;4887783;29;20032;-74
2023/04/17 03:12:50;;;;;;;47.53;28.83;;;;;;;6.84;97.31;102499.41;4893352;29;20071;-74
2023/04/17 03:15:15;;;;;;;48.70;28.30;;;;;;;6.82;97.56;102506.31;4878510;29;20424;-74
2023/04/17 03:17:41;;;;;;;46.38;28.27;;;;;;;6.82;97.53;102508.91;4864744;29;20537;-74
2023/04/17 03:20:07;;;;;;;44.85;27.30;;;;;;;6.80;98.28;102498.44;4865995;29;20040;-74
2023/04/17 03:22:33;;;;;;;47.80;28.60;;;;;;;6.79;98.08;102511.44;4880972;29;20047;-74
2023/04/17 03:24:58;;;;;;;44.10;28.77;;;;;;;6.79;97.54;102507.09;4886973;29;20044;-74
2023/04/17 03:27:24;;;;;;;46.10;29.50;;;;;;;6.75;98.26;102500.03;4871532;29;20384;-74
2023/04/17 03:29:53;;;;;;;45.10;29.10;;;;;;;6.74;98.16;102503.50;4860220;29;20048;-74
2023/04/17 03:32:19;;;;;;;43.08;29.27;;;;;;;6.73;98.04;102504.31;4909727;29;20143;-74
2023/04/17 03:34:44;;;;;;;44.22;27.27;;;;;;;6.72;97.99;102505.13;4864616;29;20045;-70
2023/04/17 03:37:10;;;;;;;44.03;28.52;;;;;;;6.71;98.42;102508.56;4885952;29;20361;-71
2023/04/17 03:39:36;;;;;;;48.75;29.65;;;;;;;6.67;98.79;102505.00;4867259;29;20378;-70
2023/04/17 03:42:01;;;;;;;45.90;29.40;;;;;;;6.62;99.02;102495.28;4870000;29;20047;-71
2023/04/17 03:44:27;;;;;;;50.47;30.73;;;;;;;6.60;98.30;102500.44;4884875;29;20481;-70
2023/04/17 03:46:52;;;;;;;48.90;30.92;;;;;;;6.59;98.65;102507.38;4884991;29;20445;-70
2023/04/17 03:49:18;;;;;;;47.97;30.77;;;;;;;6.57;98.80;102500.34;4866131;29;20775;-71
2023/04/17 03:51:43;;;;;;;46.95;29.38;;;;;;;6.58;98.47;102503.00;4885386;29;20063;-70
2023/04/17 03:54:09;;;;;;;51.53;30.30;;;;;;;6.57;99.03;102498.63;4867056;29;20401;-70
2023/04/17 03:56:34;;;;;;;51.25;31.40;;;;;;;6.54;99.17;102501.13;4884314;29;20656;-70
2023/04/17 03:59:01;;;;;;;50.25;30.27;;;;;;;6.54;98.97;102497.66;4885201;29;20061;-70
2023/04/17 04:01:27;;;;;;;51.83;31.08;;;;;;;6.53;99.91;102501.97;4882239;29;20036;-70
2023/04/17 04:03:53;;;;;;;53.10;30.80;;;;;;;6.52;100.00;102504.50;4877591;29;20134;-70
2023/04/17 04:06:19;;;;;;;54.60;32.47;;;;;;;6.50;99.95;102504.47;5013381;23;20107;-71
2023/04/17 04:08:45;;;;;;;51.13;30.70;;;;;;;6.53;99.67;102504.56;5669715;23;20377;-69
2023/04/17 04:11:10;;;;;;;53.03;31.83;;;;;;;6.53;100.00;102509.78;5216122;23;20081;-70
2023/04/17 04:16:04;;;;;;;52.65;31.88;;;;;;;6.51;100.00;102495.84;5358758;23;20018;-70
2023/04/17 04:18:29;;;;;;;54.03;32.78;;;;;;;6.50;100.00;102503.59;5200247;23;20642;-72
2023/04/17 04:20:55;;;;;;;53.67;32.92;;;;;;;6.48;100.00;102506.16;5226520;23;20054;-74
2023/04/17 04:26:10;;;;;;;54.60;33.65;;;;;;;6.46;100.00;102506.94;5345330;23;20054;-72
2023/04/17 04:28:36;;;;;;;58.83;32.92;;;;;;;6.46;100.00;102513.03;5701304;23;20034;-70
2023/04/17 04:31:02;;;;;;;58.35;34.60;;;;;;;6.40;100.00;102507.63;5111845;23;20018;-70
2023/04/17 04:33:28;;;;;;;60.20;34.45;;;;;;;6.44;100.00;102516.41;5403891;23;20059;-74
2023/04/17 05:13:19;;;;;;;69.28;37.13;;;;;;;6.56;100.00;102535.91;1228642;23;20432;-71
2023/04/17 05:15:44;;;;;;;64.28;36.25;;;;;;;6.58;100.00;102539.47;4886020;29;20146;-76
2023/04/17 05:18:10;;;;;;;66.43;36.83;;;;;;;6.59;100.00;102541.25;4887167;29;20079;-75
2023/04/17 05:20:36;;;;;;;66.65;37.50;;;;;;;6.62;100.00;102547.38;4879420;29;20485;-76
2023/04/17 05:23:02;;;;;;;72.90;39.00;;;;;;;6.61;100.00;102558.63;4884333;29;20095;-71
2023/04/17 05:25:27;;;;;;;65.80;37.95;;;;;;;6.61;100.00;102548.19;4899661;29;20039;-71
2023/04/17 05:27:52;;;;;;;70.70;38.95;;;;;;;6.61;100.00;102550.81;4897510;29;20150;-71
2023/04/17 05:30:18;;;;;;;68.45;37.28;;;;;;;6.62;100.00;102549.97;4882557;29;20036;-75
2023/04/17 05:32:43;;;;;;;75.40;39.92;;;;;;;6.61;100.00;102548.19;4884278;29;20047;-72
2023/04/17 05:35:09;;;;;;;68.13;38.25;;;;;;;6.61;100.00;102554.31;4870174;29;20040;-75
2023/04/17 05:37:35;;;;;;;67.85;38.53;;;;;;;6.64;100.00;102550.91;4902816;29;20039;-72
2023/04/17 05:40:01;;;;;;;71.78;38.60;;;;;;;6.65;100.00;102552.69;4897998;29;20175;-71
2023/04/17 05:42:26;;;;;;;69.30;37.88;;;;;;;6.65;100.00;102544.88;4883447;29;20139;-71
2023/04/17 05:44:52;;;;;;;70.28;38.25;;;;;;;6.67;100.00;102554.50;4876767;29;20131;-71
2023/04/17 05:47:18;;;;;;;65.07;37.83;;;;;;;6.71;100.00;102551.16;4905432;29;20480;-71
2023/04/17 05:49:43;;;;;;;69.07;37.85;;;;;;;6.71;100.00;102555.47;4885300;29;20094;-71
2023/04/17 05:52:09;;;;;;;63.22;36.63;;;;;;;6.74;100.00;102555.59;4881840;29;20044;-71
2023/04/17 05:54:34;;;;;;;62.72;35.47;;;;;;;6.76;100.00;102553.91;4871664;29;20044;-71
2023/04/17 05:57:01;;;;;;;60.25;37.70;;;;;;;6.78;100.00;102561.78;4905856;29;20408;-71
2023/04/17 05:59:26;;;;;;;59.80;34.60;;;;;;;6.79;100.00;102561.81;4875358;29;20063;-72
2023/04/17 06:01:52;;;;;;;54.92;34.63;;;;;;;6.79;100.00;102556.59;4904888;29;20040;-71
2023/04/17 06:04:17;;;;;;;54.78;33.78;;;;;;;6.81;100.00;102556.66;4890466;29;20234;-71
2023/04/17 06:06:43;;;;;;;54.50;34.75;;;;;;;6.82;100.00;102564.50;4885506;29;20398;-72
2023/04/17 06:09:09;;;;;;;49.95;33.58;;;;;;;6.83;100.00;102568.03;4873725;29;20094;-71
2023/04/17 06:11:37;;;;;;;50.03;32.42;;;;;;;6.87;99.74;102568.16;4879910;29;20115;-71
2023/04/17 06:14:03;;;;;;;47.05;31.98;;;;;;;6.89;99.85;102568.22;4903573;29;20048;-71
2023/04/17 06:16:28;;;;;;;45.95;30.48;;;;;;;6.88;99.36;102569.94;4864472;29;20055;-71
2023/04/17 06:18:54;;;;;;;47.13;31.33;;;;;;;6.87;99.30;102578.59;4880027;29;20040;-71
2023/04/17 06:21:20;;;;;;;43.90;29.33;;;;;;;6.87;98.58;102573.38;4881433;29;20036;-71
2023/04/17 06:23:45;;;;;;;42.35;30.45;;;;;;;6.89;98.62;102581.25;4867600;29;20039;-72
2023/04/17 06:26:11;;;;;;;47.13;31.60;;;;;;;6.91;98.66;102574.34;4883408;29;20040;-72
2023/04/17 06:28:36;;;;;;;47.08;30.77;;;;;;;6.91;98.00;102580.47;4898135;29;20040;-71
2023/04/17 06:31:02;;;;;;;45.67;30.88;;;;;;;6.93;98.38;102585.72;4879362;29;20093;-72
2023/04/17 06:33:28;;;;;;;44.40;30.38;;;;;;;6.96;98.06;102574.50;4880966;29;20044;-71
2023/04/17 06:35:53;;;;;;;46.33;30.33;;;;;;;6.99;98.31;102582.41;4882622;29;20040;-71
2023/04/17 06:38:19;;;;;;;44.35;30.85;;;;;;;7.00;97.62;102590.28;4898022;29;20032;-71
2023/04/17 06:40:45;;;;;;;47.80;33.03;;;;;;;7.02;98.35;102588.59;4879901;29;20053;-71
2023/04/17 06:43:10;;;;;;;47.55;32.13;;;;;;;7.03;98.44;102589.50;4881880;29;20036;-72
2023/04/17 06:45:36;;;;;;;50.63;32.58;;;;;;;7.04;97.83;102588.63;4898486;29;20104;-71
2023/04/17 06:48:01;;;;;;;48.58;32.72;;;;;;;7.07;97.78;102596.56;4863773;29;20040;-72
2023/04/17 06:50:27;;;;;;;47.55;32.70;;;;;;;7.07;97.12;102596.56;4876319;29;20139;-71
2023/04/17 06:52:53;;;;;;;48.60;32.47;;;;;;;7.08;97.22;102598.31;4895346;29;20215;-71
2023/04/17 06:55:20;;;;;;;47.80;33.63;;;;;;;7.08;96.83;102598.31;4888768;29;20035;-71
2023/04/17 06:57:46;;;;;;;45.45;32.33;;;;;;;7.12;97.42;102602.81;4888040;29;20040;-72
2023/04/17 07:00:12;;;;;;;50.47;33.85;;;;;;;7.13;96.83;102601.97;4871733;29;20415;-71
2023/04/17 07:02:37;;;;;;;45.75;31.13;;;;;;;7.15;96.88;102595.06;4881778;29;20135;-71
2023/04/17 07:05:06;;;;;;;47.53;32.88;;;;;;;7.18;96.10;102604.72;4893166;29;20131;-72
2023/04/17 07:07:33;;;;;;;45.30;31.25;;;;;;;7.17;96.54;102606.44;4897738;29;20056;-71
2023/04/17 07:09:59;;;;;;;46.28;31.73;;;;;;;7.20;95.84;102605.66;4865645;29;20048;-71
2023/04/17 07:12:25;;;;;;;46.95;31.50;;;;;;;7.24;96.11;102613.63;4899549;29;20051;-71
2023/04/17 07:14:51;;;;;;;47.88;32.63;;;;;;;7.26;96.68;102606.72;4885712;29;20101;-71
2023/04/17 07:17:16;;;;;;;51.67;33.35;;;;;;;7.33;95.60;102619.97;4885853;29;20080;-71
2023/04/17 07:19:43;;;;;;;47.88;30.98;;;;;;;7.33;95.82;102612.13;4897959;29;20430;-71
2023/04/17 07:22:08;;;;;;;44.92;31.73;;;;;;;7.40;96.00;102622.78;4884897;29;20033;-71
2023/04/17 07:24:34;;;;;;;46.38;30.83;;;;;;;7.45;95.45;102630.75;4870611;29;20043;-71
2023/04/17 07:27:01;;;;;;;44.72;30.83;;;;;;;7.49;95.00;102624.78;4889559;29;20032;-71
2023/04/17 07:29:27;;;;;;;45.83;31.60;;;;;;;7.57;95.51;102632.81;4903101;29;20130;-72
2023/04/17 07:31:52;;;;;;;44.63;31.27;;;;;;;7.67;96.00;102627.06;4902515;29;20176;-71
2023/04/17 07:34:24;;;;;;;51.95;32.38;;;;;;;7.74;95.44;102638.53;4888012;29;20138;-71
2023/04/17 07:36:53;;;;;;;47.22;31.38;;;;;;;7.77;94.77;102636.00;4886190;29;20132;-71
2023/04/17 07:39:18;;;;;;;49.88;32.30;;;;;;;7.83;94.41;102633.59;4889517;29;20204;-71
2023/04/17 07:41:44;;;;;;;47.38;31.85;;;;;;;7.93;94.63;102635.63;4867089;29;20127;-71
2023/04/17 07:44:09;;;;;;;45.38;31.05;;;;;;;7.92;92.60;102636.44;4903697;29;20051;-71
2023/04/17 07:46:35;;;;;;;48.55;29.95;;;;;;;7.95;92.89;102638.28;4870970;29;20085;-71
2023/04/17 07:49:00;;;;;;;44.17;30.50;;;;;;;8.02;93.31;102639.34;4885380;29;20135;-71
2023/04/17 07:54:02;;;;;;;45.10;29.67;;;;;;;8.14;92.17;102639.66;5217473;23;20055;-71
2023/04/17 07:56:27;;;;;;;43.50;30.88;;;;;;;8.25;91.98;102643.44;4889583;29;20063;-71
2023/04/17 07:58:53;;;;;;;44.33;31.45;;;;;;;8.37;92.21;102642.00;4888842;29;20159;-72
2023/04/17 08:01:18;;;;;;;49.67;31.05;;;;;;;8.51;91.46;102645.03;4918953;29;20459;-71
2023/04/17 08:03:44;;;;;;;44.95;30.95;;;;;;;8.63;91.14;102646.22;4903585;29;20051;-72
2023/04/17 08:06:10;;;;;;;42.70;30.80;;;;;;;8.73;89.97;102641.22;4888089;29;20035;-72
2023/04/17 08:08:36;;;;;;;43.28;30.85;;;;;;;8.72;88.06;102639.44;4901201;29;20048;-71
2023/04/17 08:11:05;;;;;;;44.30;30.23;;;;;;;8.75;87.87;102639.50;4899121;29;20043;-72
2023/04/17 08:13:31;;;;;;;46.85;30.42;;;;;;;8.81;88.88;102639.66;4904995;29;20044;-72
2023/04/17 08:15:58;;;;;;;41.13;29.75;;;;;;;8.85;87.84;102646.75;4892451;29;20040;-71
2023/04/17 08:18:24;;;;;;;44.42;29.02;;;;;;;8.89;87.16;102647.69;4908230;29;20554;-71
2023/04/17 08:20:51;;;;;;;44.33;31.15;;;;;;;8.96;87.67;102645.25;4901360;29;20071;-72
2023/04/17 08:23:17;;;;;;;41.80;28.77;;;;;;;8.89;85.73;102652.91;4903689;29;20107;-72
2023/04/17 08:25:44;;;;;;;38.60;28.10;;;;;;;8.88;85.62;102652.03;4884587;29;20056;-72
2023/04/17 08:28:10;;;;;;;38.92;27.63;;;;;;;8.86;85.61;102647.63;4902909;29;20703;-71
2023/04/17 08:30:36;;;;;;;43.67;28.85;;;;;;;8.84;85.64;102648.47;4888929;29;20051;-71
2023/04/17 08:33:02;;;;;;;38.63;27.83;;;;;;;8.77;83.86;102656.13;4893203;29;20036;-72
2023/04/17 08:35:28;;;;;;;37.92;28.33;;;;;;;8.78;85.61;102648.31;4901592;29;20063;-71
2023/04/17 08:37:55;;;;;;;43.65;29.50;;;;;;;8.76;85.43;102655.22;4891732;29;20040;-71
2023/04/17 08:40:23;;;;;;;40.10;29.00;;;;;;;8.79;85.98;102649.19;4896641;29;20040;-72
2023/04/17 08:42:51;;;;;;;38.50;28.20;;;;;;;8.79;85.38;102649.19;4893937;29;20091;-72
2023/04/17 08:45:17;;;;;;;37.58;28.73;;;;;;;8.81;85.88;102648.38;4897519;29;20107;-72
2023/04/17 08:47:43;;;;;;;40.92;29.65;;;;;;;8.87;86.18;102650.28;4887855;29;20047;-72
2023/04/17 08:50:12;;;;;;;40.47;29.35;;;;;;;8.93;85.74;102652.16;4902387;29;20425;-72
2023/04/17 08:52:51;;;;;;;43.58;30.17;;;;;;;9.11;86.33;102659.56;4902503;29;20045;-71
2023/04/17 08:55:24;;;;;;;39.22;29.65;;;;;;;9.28;86.65;102645.13;4887464;29;20100;-72
2023/04/17 08:58:02;;;;;;;45.17;29.15;;;;;;;9.44;84.82;102648.06;4903845;29;20071;-71
2023/04/17 09:00:39;;;;;;;42.17;29.88;;;;;;;9.56;84.33;102653.59;4890415;29;20042;-72
2023/04/17 09:03:09;;;;;;;40.58;29.15;;;;;;;9.65;84.42;102653.75;4902396;29;20428;-72
2023/04/17 09:05:36;;;;;;;38.38;27.75;;;;;;;9.63;83.06;102660.72;4904406;29;20032;-72
2023/04/17 09:08:24;;;;;;;39.75;28.40;;;;;;;9.68;82.36;102661.72;4916331;29;20050;-72
2023/04/17 09:10:51;;;;;;;42.65;29.65;;;;;;;9.81;83.58;102655.00;4926436;29;20035;-72
2023/04/17 09:13:23;;;;;;;40.80;30.40;;;;;;;10.10;84.50;102656.41;4918024;29;20399;-76
2023/04/17 09:16:09;;;;;;;43.90;30.20;;;;;;;10.10;81.63;102659.03;4902757;29;20044;-77
2023/04/17 09:18:37;;;;;;;42.85;29.73;;;;;;;10.13;81.26;102657.38;4894966;29;20058;-76
2023/04/17 09:21:08;;;;;;;42.33;28.73;;;;;;;10.22;80.56;102664.50;4911103;29;20042;-75
2023/04/17 09:23:54;;;;;;;39.33;28.98;;;;;;;10.37;80.73;102664.84;4916484;29;20055;-75
2023/04/17 09:26:25;;;;;;;40.47;28.85;;;;;;;10.59;80.15;102662.59;4902997;29;20035;-76
2023/04/17 09:29:09;;;;;;;40.38;29.33;;;;;;;10.62;78.40;102659.16;4917310;29;20051;-75
2023/04/17 09:31:37;;;;;;;39.78;29.00;;;;;;;10.68;77.38;102652.25;4890054;29;20393;-75
2023/04/17 09:34:11;;;;;;;40.33;29.30;;;;;;;10.86;80.02;102658.66;4884179;29;20052;-76
2023/04/17 09:36:40;;;;;;;39.90;28.92;;;;;;;11.02;78.72;102662.41;4935331;29;20433;-73
2023/04/17 09:39:23;;;;;;;40.10;28.25;;;;;;;11.12;78.11;102650.31;4908782;29;20046;-72
2023/04/17 09:41:48;;;;;;;43.42;29.10;;;;;;;11.18;76.41;102642.56;4909776;29;20024;-72
2023/04/17 09:44:27;;;;;;;37.83;28.20;;;;;;;11.21;75.12;102647.84;4914853;29;20146;-72
2023/04/17 09:46:53;;;;;;;40.30;29.63;;;;;;;11.40;76.60;102644.59;4908771;29;20050;-76
2023/04/17 09:49:32;;;;;;;41.25;29.45;;;;;;;11.88;77.43;102646.94;4914086;29;20044;-76
2023/04/17 09:51:58;;;;;;;41.50;29.85;;;;;;;12.21;76.55;102648.22;4919870;29;20091;-76
2023/04/17 09:54:24;;;;;;;37.22;28.73;;;;;;;12.45;73.95;102651.06;4915208;29;20155;-76
2023/04/17 09:56:54;;;;;;;37.33;28.85;;;;;;;12.66;71.78;102652.16;4906282;29;20047;-75
2023/04/17 09:59:22;;;;;;;37.28;26.98;;;;;;;12.68;70.49;102655.66;4895924;29;20123;-75
2023/04/17 10:01:49;;;;;;;35.78;27.60;;;;;;;12.73;70.72;102645.19;4898841;29;20032;-76
2023/04/17 10:04:14;;;;;;;36.03;26.15;;;;;;;12.87;68.95;102658.44;4890247;29;20079;-72
2023/04/17 10:06:40;;;;;;;36.17;26.73;;;;;;;13.06;71.81;102659.47;4894671;29;20127;-76
2023/04/17 10:09:06;;;;;;;38.00;27.05;;;;;;;12.97;67.23;102658.56;4878794;29;20059;-75
2023/04/17 10:11:38;;;;;;;42.55;29.00;;;;;;;13.06;68.46;102656.81;4898278;29;20043;-76
2023/04/17 10:14:12;;;;;;;36.55;27.10;;;;;;;13.26;67.36;102646.44;4910920;29;20036;-76
2023/04/17 10:16:41;;;;;;;31.75;24.52;;;;;;;13.41;66.86;102646.56;4906373;29;20083;-76
2023/04/17 10:19:37;;;;;;;33.38;25.45;;;;;;;13.72;68.39;102641.44;4912412;29;20505;-76
2023/04/17 10:22:16;;;;;;;32.70;24.58;;;;;;;14.07;67.37;102645.06;4900338;29;20032;-76
2023/04/17 10:25:02;;;;;;;34.05;24.45;;;;;;;14.08;62.85;102649.44;4915848;29;20046;-76
2023/04/17 10:27:27;;;;;;;32.10;23.15;;;;;;;13.98;62.43;102653.84;4912664;29;20118;-76
2023/04/17 10:29:56;;;;;;;33.47;26.75;;;;;;;13.69;62.55;102651.94;4907526;29;20100;-76
2023/04/17 10:32:27;;;;;;;33.55;24.58;;;;;;;13.75;65.73;102645.81;4892924;29;20074;-76
2023/04/17 10:34:57;;;;;;;34.05;24.75;;;;;;;14.00;64.01;102644.16;4909066;29;20051;-76
2023/04/17 10:37:49;;;;;;;32.85;25.10;;;;;;;13.85;63.24;102647.63;4910060;29;20059;-76
2023/04/17 10:40:20;;;;;;;31.17;23.33;;;;;;;13.79;62.17;102645.88;4906754;29;20475;-75
2023/04/17 10:43:04;;;;;;;32.70;23.90;;;;;;;14.18;65.02;102644.22;4905336;29;20194;-75
2023/04/17 10:45:58;;;;;;;33.00;24.20;;;;;;;14.45;64.14;102637.22;4889408;29;20036;-76
2023/04/17 10:48:31;;;;;;;30.48;23.13;;;;;;;14.82;63.23;102644.28;4916049;29;20108;-76
2023/04/17 10:51:01;;;;;;;31.20;22.42;;;;;;;14.94;60.02;102635.47;4911032;29;20495;-76
2023/04/17 10:53:43;;;;;;;32.35;23.55;;;;;;;14.95;60.55;102635.47;4912133;29;20055;-76
2023/04/17 10:56:11;;;;;;;28.90;22.48;;;;;;;14.65;59.98;102639.00;4902149;29;20059;-72
2023/04/17 10:58:58;;;;;;;31.23;23.30;;;;;;;14.48;59.57;102637.22;4899610;29;20130;-76
2023/04/17 11:01:47;;;;;;;30.65;23.63;;;;;;;14.30;59.77;102638.06;4917718;29;20090;-76
2023/04/17 11:04:19;;;;;;;29.00;23.23;;;;;;;14.29;61.47;102630.16;4908389;29;20043;-76
2023/04/17 11:06:45;;;;;;;33.20;23.95;;;;;;;14.27;60.32;102627.53;4914762;29;20039;-76
2023/04/17 11:09:11;;;;;;;31.92;23.80;;;;;;;14.31;61.35;102631.03;4902611;29;20127;-76
2023/04/17 11:11:40;;;;;;;30.65;23.13;;;;;;;14.25;60.91;102631.03;4908586;29;20115;-77
2023/04/17 11:14:10;;;;;;;31.92;23.88;;;;;;;14.19;59.48;102631.91;4919658;29;20373;-76
2023/04/17 11:16:41;;;;;;;34.03;25.67;;;;;;;13.93;60.40;102639.75;4895979;29;20068;-75
2023/04/17 11:19:11;;;;;;;31.67;24.20;;;;;;;14.15;61.29;102623.13;4887500;29;20051;-76
2023/04/17 11:21:52;;;;;;;32.85;24.00;;;;;;;14.17;58.91;102621.34;4895746;29;20123;-76
2023/04/17 11:24:24;;;;;;;;;;;;;;;14.37;59.61;102623.13;4913365;29;20134;-72
2023/04/17 11:26:50;;;;;;;31.08;24.00;;;;;;;14.33;59.49;102629.28;4914067;29;19914;-77
2023/04/17 11:29:17;;;;;;;30.05;23.52;;;;;;;14.45;60.57;102636.31;4911387;29;20511;-76
2023/04/17 11:31:44;;;;;;;29.65;23.50;;;;;;;14.69;61.31;102624.94;4910830;29;20067;-72
2023/04/17 11:34:10;;;;;;;31.38;23.88;;;;;;;14.78;58.14;102630.19;4915109;29;20028;-73
2023/04/17 11:36:35;;;;;;;29.80;23.73;;;;;;;14.75;55.79;102619.66;4886465;29;20079;-76
2023/04/17 11:39:01;;;;;;;28.63;23.45;;;;;;;14.65;56.46;102636.38;4910105;29;20127;-75
2023/04/17 11:41:37;;;;;;;29.50;24.17;;;;;;;14.31;57.43;102621.38;4917260;29;20855;-73
2023/04/17 11:44:02;;;;;;;28.20;23.08;;;;;;;14.19;57.17;102629.25;4903672;29;20036;-72
2023/04/17 11:46:29;;;;;;;29.25;23.70;;;;;;;13.89;57.85;102627.44;4886426;29;20503;-72
2023/04/17 11:48:55;;;;;;;31.48;24.58;;;;;;;13.83;59.00;102618.66;4900561;29;20556;-72
2023/04/17 11:51:20;;;;;;;29.40;23.25;;;;;;;13.88;58.84;102613.38;4903548;29;20047;-72
2023/04/17 11:53:49;;;;;;;30.33;24.00;;;;;;;13.93;58.40;102614.25;4892575;29;20052;-76
2023/04/17 11:56:19;;;;;;;30.17;24.90;;;;;;;14.00;58.36;102612.53;4913455;29;20032;-76
2023/04/17 11:58:53;;;;;;;35.65;23.27;;;;;;;14.14;59.11;102616.06;4904375;29;20040;-72
2023/04/17 12:01:23;;;;;;;29.38;22.08;;;;;;;14.40;55.45;102611.72;4901941;29;20040;-73